Flight Track Log - Related Links

Times and Time Zones

All times are in EDT time to prevent confusion due to time zone crossing. See the OPT330 flight status page for this flight to view local times or setup timezone preferences in your user account.

Time Position Orientation Groundspeed Altitude Reporting Facility
EDT Latitude Longitude Course Direction KTS MPH feet Rate Location/Type
Thu 08:05:00 PM 36.8414 -121.3618 130° Southeast  Level FlightAware Approximate
Thu 08:06:00 PM 36.7841 -121.2934 133° Southeast  Level Estimated
Thu 08:07:00 PM 36.7267 -121.2252 141° Southeast  Level Estimated
Thu 08:08:00 PM 36.6693 -121.1571 137° Southeast  Level Estimated
Thu 08:08:04 PM 36.6667 -121.1840 136° Southeast 292 336 18,200  Level FlightAware ADS-B
Thu 08:13:02 PM 36.3359 -120.7880 136° Southeast 340 391 23,000 684 Climbing FlightAware ADS-B (KSAC)
Thu 08:15:05 PM 36.1716 -120.5929 136° Southeast 382 440 23,000  Level FlightAware ADS-B (KSAC)
Thu 08:15:37 PM 36.1203 -120.5339 136° Southeast 385 443 23,000  Level Oakland Center
Thu 08:16:39 PM 36.0433 -120.4428 136° Southeast 384 442 23,000  Level Oakland Center
Thu 08:17:40 PM 35.9669 -120.3519 136° Southeast 384 442 23,000  Level Oakland Center
Thu 08:18:42 PM 35.8892 -120.2611 137° Southeast 383 441 23,000  Level Oakland Center
Thu 08:19:43 PM 35.8117 -120.1700 136° Southeast 383 441 23,000  Level Oakland Center
Thu 08:20:44 PM 35.7342 -120.0794 137° Southeast 383 441 23,000  Level Oakland Center
Thu 08:21:46 PM 35.6561 -119.9886 137° Southeast 383 441 23,000  Level Oakland Center
Thu 08:27:43 PM 35.1403 -119.5425 145° Southeast 366 421 23,000  Level FlightAware ADS-B
Thu 08:28:29 PM 35.0770 -119.4884 145° Southeast 364 419 23,000  Level FlightAware ADS-B
Thu 08:29:02 PM 35.0309 -119.4492 145° Southeast 363 418 23,000 -825 Level FlightAware ADS-B
Thu 08:29:49 PM 34.9650 -119.3933 145° Southeast 372 428 21,900 -1,804 Descending FlightAware ADS-B
Thu 08:31:35 PM 34.8175 -119.2682 145° Southeast 367 422 18,400 -1,946 Descending FlightAware ADS-B
Thu 08:32:17 PM 34.7587 -119.2184 145° Southeast 360 414 17,100 -1,895 Descending FlightAware ADS-B
Thu 08:33:10 PM 34.6862 -119.1571 145° Southeast 351 404 15,400 -1,872 Descending FlightAware ADS-B
Thu 08:34:06 PM 34.6128 -119.0954 145° Southeast 342 394 13,700 -1,891 Descending FlightAware ADS-B
Thu 08:34:42 PM 34.5656 -119.0559 145° Southeast 337 388 12,500 -1,696 Descending FlightAware ADS-B
Thu 08:35:38 PM 34.4952 -118.9974 147° Southeast 325 374 11,100 -1,691 Descending FlightAware ADS-B
Thu 08:36:32 PM 34.4282 -118.9530 151° Southeast 292 336 9,400 -1,816 Descending FlightAware ADS-B
Thu 08:36:54 PM 34.4024 -118.9359 151° Southeast 291 335 8,800 -1,756 Descending FlightAware ADS-B
Thu 08:37:13 PM 34.3834 -118.9168 132° Southeast 290 334 8,200 -2,167 Descending FlightAware ADS-B
Thu 08:37:30 PM 34.3791 -118.9107 133° Southeast 290 334 7,500 -2,294 Descending FlightAware ADS-B
Thu 08:37:47 PM 34.3519 -118.8758 142° Southeast 289 333 6,900 -1,636 Descending FlightAware ADS-B
Thu 08:38:14 PM 34.3261 -118.8478 125° Southeast 284 327 6,300 -524 Descending FlightAware ADS-B
Thu 08:39:30 PM 34.2746 -118.7498 123° Southeast 265 305 6,000 -188 Descending FlightAware ADS-B
Thu 08:39:50 PM 34.2612 -118.7248 123° Southeast 259 298 6,000 -158 Level FlightAware ADS-B
Thu 08:40:08 PM 34.2501 -118.7037 123° Southeast 244 281 5,900 -1,180 Descending FlightAware ADS-B
Thu 08:40:51 PM 34.2293 -118.6570 100° East 203 234 4,800 -1,407 Descending FlightAware ADS-B
Thu 08:41:29 PM 34.2223 -118.6147 103° East 195 224 4,000 -971 Descending FlightAware ADS-B
Thu 08:41:59 PM 34.2179 -118.5905 103° East 184 212 3,700 -545 Descending FlightAware ADS-B
Thu 08:43:19 PM 34.2015 -118.5016 103° East 191 220 3,000 -420 Descending FlightAware ADS-B
Thu 08:43:39 PM 34.1992 -118.4831 88° East 177 204 3,000 -154 Level FlightAware ADS-B
Thu 08:43:58 PM 34.1993 -118.4640 90° East 149 171 2,900 -632 Descending FlightAware ADS-B
Thu 08:44:17 PM 34.1992 -118.4506 92° East 143 165 2,600 -1,220 Descending FlightAware ADS-B
Thu 08:44:57 PM 34.2000 -118.4167 92° East 144 166 1,700 -1,084 Descending Southern California TRACON
Thu 08:45:40 PM 34.1986 -118.3883 93° East 148 170 1,100 -571 Descending Los Angeles Center
Thu 08:46:42 PM 34.1983 -118.3528 91° East 141 162 700 -387 Descending Los Angeles Center
Thu 08:48:00 PM 34.2000 -118.3500 North  Level FlightAware Approximate

Login

Don't have an account? Register now (free) for customized features, flight alerts, and more!